Time;durP1;ratioP1;P1;durP2;ratioP2;P2;SDS_P1;SDS_P2;PMS_P1;PMS_P2;Temp;Humidity;BMP_temperature;BMP_pressure;BME280_temperature;BME280_humidity;BME280_pressure;Samples;Min_cycle;Max_cycle;Signal;HPM_P1;HPM_P2
2023/09/02 00:01:13;;;;;;;;;6.67;4.67;;;;;-146.67;100.00;57155.34;5064483;28;8783;-81
2023/09/02 00:03:38;;;;;;;;;5.00;5.00;;;;;-146.67;100.00;57155.34;5082491;28;8806;-81
2023/09/02 00:06:04;;;;;;;;;7.00;6.25;;;;;-146.67;100.00;57155.34;5098382;28;8901;-81
2023/09/02 00:08:29;;;;;;;;;7.00;5.00;;;;;-146.67;100.00;57155.34;5082758;28;8798;-81
2023/09/02 00:10:54;;;;;;;;;10.00;4.00;;;;;-146.67;100.00;57155.34;5098085;28;8790;-81
2023/09/02 00:13:20;;;;;;;;;4.75;4.25;;;;;-146.67;100.00;57155.34;5082866;28;8797;-82
2023/09/02 00:15:45;;;;;;;;;6.00;6.00;;;;;-146.67;100.00;57155.34;5064265;28;8842;-81
2023/09/02 00:18:10;;;;;;;;;8.00;5.75;;;;;-146.67;100.00;57155.34;5081895;28;8783;-81
2023/09/02 00:20:36;;;;;;;;;10.00;7.25;;;;;-146.67;100.00;57155.34;5064194;28;8889;-81
2023/09/02 00:23:01;;;;;;;;;7.25;6.50;;;;;-146.67;100.00;57155.34;5082268;28;8779;-81
2023/09/02 00:25:27;;;;;;;;;11.00;7.50;;;;;-146.67;100.00;57155.34;5064687;28;8786;-81
2023/09/02 00:27:52;;;;;;;;;8.00;6.75;;;;;-146.67;100.00;57155.34;5082231;28;8898;-82
2023/09/02 00:30:18;;;;;;;;;8.00;8.00;;;;;-146.67;100.00;57155.34;5064027;28;8799;-82
2023/09/02 00:32:43;;;;;;;;;6.25;5.75;;;;;-146.67;100.00;57155.34;5082197;28;8893;-82
2023/09/02 00:35:10;;;;;;;;;8.25;6.25;;;;;-146.67;100.00;57155.34;5082356;28;8770;-82
2023/09/02 00:37:35;;;;;;;;;12.75;9.75;;;;;-146.67;100.00;57155.34;5082410;28;8743;-82
2023/09/02 00:40:01;;;;;;;;;10.00;8.00;;;;;-146.67;100.00;57155.34;5081046;28;9763;-81
2023/09/02 00:42:29;;;;;;;;;6.00;5.00;;;;;-146.67;100.00;57155.34;5082329;28;8804;-81
2023/09/02 00:44:55;;;;;;;;;8.00;7.00;;;;;-146.67;100.00;57155.34;5064425;28;8785;-82
2023/09/02 00:47:20;;;;;;;;;12.67;10.00;;;;;-146.67;100.00;57155.34;5063506;28;11111;-82
2023/09/02 00:49:46;;;;;;;;;14.33;10.33;;;;;-146.67;100.00;57155.34;5063620;28;8868;-82
2023/09/02 00:52:11;;;;;;;;;10.50;9.25;;;;;-146.67;100.00;57155.34;5082107;28;8793;-82
2023/09/02 00:54:37;;;;;;;;;11.00;10.00;;;;;-146.67;100.00;57155.34;5084797;28;11372;-82
2023/09/02 00:57:02;;;;;;;;;8.00;8.00;;;;;-146.67;100.00;57155.34;5067287;28;9890;-82
2023/09/02 00:59:28;;;;;;;;;10.75;8.25;;;;;-146.67;100.00;57155.34;5067284;28;8822;-82
2023/09/02 01:01:56;;;;;;;;;10.50;9.25;;;;;-146.67;100.00;57155.34;5085378;28;8814;-82
2023/09/02 01:04:22;;;;;;;;;12.50;10.25;;;;;-146.67;100.00;57155.34;5085290;28;9956;-82
2023/09/02 01:06:47;;;;;;;;;8.75;7.50;;;;;-146.67;100.00;57155.34;5085192;28;9870;-81
2023/09/02 01:09:14;;;;;;;;;10.50;10.00;;;;;-146.67;100.00;57155.34;5066313;28;8802;-81
2023/09/02 01:11:39;;;;;;;;;12.00;11.75;;;;;-146.67;100.00;57155.34;5083860;28;8775;-81
2023/09/02 01:14:04;;;;;;;;;9.00;9.00;;;;;-146.67;100.00;57155.34;5083337;28;9890;-81
2023/09/02 01:16:31;;;;;;;;;10.75;9.75;;;;;-146.67;100.00;57155.34;5067132;28;9838;-81
2023/09/02 01:18:58;;;;;;;;;12.00;10.00;;;;;-146.67;100.00;57155.34;5066790;28;8828;-82
2023/09/02 01:21:38;;;;;;;;;10.00;9.75;;;;;-146.67;100.00;57155.34;5066374;28;9411;-82
2023/09/02 01:24:16;;;;;;;;;9.75;7.75;;;;;-146.67;100.00;57155.34;5067455;28;9878;-81
2023/09/02 01:27:13;;;;;;;;;13.50;9.00;;;;;-146.67;100.00;57155.34;5066735;28;10229;-82
2023/09/02 01:30:22;;;;;;;;;10.75;7.25;;;;;-146.67;100.00;57155.34;5067088;28;9538;-82
2023/09/02 01:32:52;;;;;;;;;11.00;10.50;;;;;-146.67;100.00;57155.34;5042251;28;9831;-82
2023/09/02 01:35:23;;;;;;;;;12.25;11.25;;;;;-146.67;100.00;57155.34;5042791;28;9824;-82
2023/09/02 01:37:55;;;;;;;;;12.50;10.75;;;;;-146.67;100.00;57155.34;5042429;28;11043;-81
2023/09/02 01:40:24;;;;;;;;;12.00;12.00;;;;;-146.67;100.00;57155.34;5042347;28;9742;-81
2023/09/02 01:42:51;;;;;;;;;13.50;11.50;;;;;-146.67;100.00;57155.34;5031074;28;9820;-81
2023/09/02 01:45:18;;;;;;;;;12.75;11.25;;;;;-146.67;100.00;57155.34;5042355;28;9882;-82
2023/09/02 01:47:44;;;;;;;;;11.00;10.00;;;;;-146.67;100.00;57155.34;5025084;28;10284;-82
2023/09/02 01:50:13;;;;;;;;;12.25;10.25;;;;;-146.67;100.00;57155.34;5025326;28;10455;-82
2023/09/02 01:52:39;;;;;;;;;14.50;10.75;;;;;-146.67;100.00;57155.34;5025425;28;8860;-81
2023/09/02 01:55:05;;;;;;;;;10.75;9.75;;;;;-146.67;100.00;57155.34;5025411;28;9926;-82
2023/09/02 01:57:32;;;;;;;;;11.75;11.75;;;;;-146.67;100.00;57155.34;5041799;28;9928;-81
2023/09/02 01:59:58;;;;;;;;;11.00;9.00;;;;;-146.67;100.00;57155.34;5042326;28;9738;-82
2023/09/02 02:02:23;;;;;;;;;9.75;9.50;;;;;-146.67;100.00;57155.34;5041729;28;9892;-82
2023/09/02 02:04:54;;;;;;;;;9.00;9.00;;;;;-146.67;100.00;57155.34;5024757;28;8790;-82
2023/09/02 02:07:21;;;;;;;;;11.50;11.00;;;;;-146.67;100.00;57155.34;5060684;28;10156;-82
2023/09/02 02:09:52;;;;;;;;;13.00;10.25;;;;;-146.67;100.00;57155.34;5084142;28;9807;-81
2023/09/02 02:12:19;;;;;;;;;10.50;9.50;;;;;-146.67;100.00;57155.34;5084629;28;9825;-82
2023/09/02 02:14:45;;;;;;;;;10.50;9.50;;;;;-146.67;100.00;57155.34;5084217;28;9734;-82
2023/09/02 02:17:11;;;;;;;;;12.00;10.00;;;;;-146.67;100.00;57155.34;5066086;28;10014;-82
2023/09/02 02:19:36;;;;;;;;;9.00;9.00;;;;;-146.67;100.00;57155.34;5083487;28;8985;-81
2023/09/02 02:22:02;;;;;;;;;10.00;9.75;;;;;-146.67;100.00;57155.34;5084458;28;8789;-82
2023/09/02 02:24:27;;;;;;;;;16.50;10.50;;;;;-146.67;100.00;57155.34;5084235;28;8781;-81
2023/09/02 02:26:53;;;;;;;;;9.25;9.00;;;;;-146.67;100.00;57155.34;5084038;28;8769;-82
2023/09/02 02:29:18;;;;;;;;;11.25;9.75;;;;;-146.67;100.00;57155.34;5066460;28;8808;-82
2023/09/02 02:31:44;;;;;;;;;7.25;7.25;;;;;-146.67;100.00;57155.34;5065913;28;8801;-82
2023/09/02 02:34:09;;;;;;;;;11.50;10.25;;;;;-146.67;100.00;57155.34;5065974;28;8892;-82
2023/09/02 02:36:35;;;;;;;;;8.00;7.75;;;;;-146.67;100.00;57155.34;5066118;28;9872;-82
2023/09/02 02:39:00;;;;;;;;;9.25;7.75;;;;;-146.67;100.00;57155.34;5065210;28;8827;-81
2023/09/02 02:41:26;;;;;;;;;8.25;8.25;;;;;-146.67;100.00;57155.34;5083883;28;8789;-82
2023/09/02 02:43:51;;;;;;;;;9.00;9.00;;;;;-146.67;100.00;57155.34;5083896;28;8914;-82
2023/09/02 02:46:17;;;;;;;;;11.00;8.25;;;;;-146.67;100.00;57155.34;5084077;28;8809;-81
2023/09/02 02:48:42;;;;;;;;;10.00;8.75;;;;;-146.67;100.00;57155.34;5083651;28;8831;-81
2023/09/02 02:51:07;;;;;;;;;9.25;9.25;;;;;-146.67;100.00;57155.34;5065172;28;8824;-82
2023/09/02 02:53:34;;;;;;;;;7.75;7.75;;;;;-146.67;100.00;57155.34;5065635;28;8797;-81
2023/09/02 02:56:02;;;;;;;;;8.00;7.00;;;;;-146.67;100.00;57155.34;5065489;28;10034;-82
2023/09/02 02:58:29;;;;;;;;;9.00;9.00;;;;;-146.67;100.00;57155.34;5083690;28;9749;-82
2023/09/02 03:01:04;;;;;;;;;10.25;9.00;;;;;-146.67;100.00;57155.34;5083575;28;9948;-82
2023/09/02 03:03:29;;;;;;;;;8.75;6.50;;;;;-146.67;100.00;57155.34;5083695;28;9618;-82
2023/09/02 03:05:55;;;;;;;;;6.75;6.75;;;;;-146.67;100.00;57155.34;5083557;28;10784;-81
2023/09/02 03:08:20;;;;;;;;;7.75;7.75;;;;;-146.67;100.00;57155.34;5066892;28;8811;-83
2023/09/02 03:10:54;;;;;;;;;4.50;4.50;;;;;-146.67;100.00;57155.34;5053890;28;8797;-83
2023/09/02 03:13:19;;;;;;;;;7.50;6.25;;;;;-146.67;100.00;57155.34;5065387;28;8841;-84
2023/09/02 03:15:49;;;;;;;;;5.75;5.75;;;;;-146.67;100.00;57155.34;5045423;28;10137;-83
2023/09/02 03:18:14;;;;;;;;;6.75;6.00;;;;;-146.67;100.00;57155.34;5040251;28;8812;-84
2023/09/02 03:20:40;;;;;;;;;6.25;6.25;;;;;-146.67;100.00;57155.34;5041565;28;9827;-83
2023/09/02 03:23:05;;;;;;;;;8.25;6.25;;;;;-146.67;100.00;57155.34;5041516;28;8801;-83
2023/09/02 03:25:31;;;;;;;;;3.00;2.50;;;;;-146.67;100.00;57155.34;5042013;28;9932;-84
2023/09/02 03:27:59;;;;;;;;;4.25;3.00;;;;;-146.67;100.00;57155.34;5041845;28;8797;-84
2023/09/02 03:30:25;;;;;;;;;3.00;3.00;;;;;-146.67;100.00;57155.34;5043175;28;9793;-84
2023/09/02 03:32:50;;;;;;;;;7.75;5.00;;;;;-146.67;100.00;57155.34;5042567;28;9488;-84
2023/09/02 03:35:15;;;;;;;;;11.00;6.50;;;;;-146.67;100.00;57155.34;5041664;28;10020;-83
2023/09/02 03:37:43;;;;;;;;;5.25;5.25;;;;;-146.67;100.00;57155.34;5041308;28;10037;-84
2023/09/02 03:40:08;;;;;;;;;7.75;5.25;;;;;-146.67;100.00;57155.34;5043151;28;8892;-84
2023/09/02 03:42:34;;;;;;;;;4.00;4.00;;;;;-146.67;100.00;57155.34;5059640;28;9932;-84
2023/09/02 03:44:59;;;;;;;;;5.75;5.00;;;;;-146.67;100.00;57155.34;5061236;28;9924;-83
2023/09/02 03:47:28;;;;;;;;;4.75;4.50;;;;;-146.67;100.00;57155.34;5044581;28;8825;-83
2023/09/02 03:49:54;;;;;;;;;5.50;5.50;;;;;-146.67;100.00;57155.34;5062591;28;8792;-84
2023/09/02 03:52:19;;;;;;;;;4.00;4.00;;;;;-146.67;100.00;57155.34;5062443;28;9871;-83
2023/09/02 03:54:44;;;;;;;;;8.00;4.00;;;;;-146.67;100.00;57155.34;5063027;28;8933;-84
2023/09/02 03:57:10;;;;;;;;;4.25;4.25;;;;;-146.67;100.00;57155.34;5079249;28;8854;-84
2023/09/02 03:59:35;;;;;;;;;3.50;3.50;;;;;-146.67;100.00;57155.34;5081536;28;8833;-84
2023/09/02 04:02:01;;;;;;;;;5.50;4.25;;;;;-146.67;100.00;57155.34;5082666;28;8859;-83
2023/09/02 04:04:26;;;;;;;;;5.00;4.00;;;;;-146.67;100.00;57155.34;5082517;28;8809;-84
2023/09/02 04:06:51;;;;;;;;;6.00;5.00;;;;;-146.67;100.00;57155.34;5064483;28;8825;-83
2023/09/02 04:09:17;;;;;;;;;6.00;6.00;;;;;-146.67;100.00;57155.34;5064536;28;8844;-84
2023/09/02 04:11:43;;;;;;;;;5.50;4.00;;;;;-146.67;100.00;57155.34;5081363;28;8814;-84
2023/09/02 04:14:08;;;;;;;;;4.50;4.50;;;;;-146.67;100.00;57155.34;5082671;28;8746;-83
2023/09/02 04:16:34;;;;;;;;;3.75;3.75;;;;;-146.67;100.00;57155.34;5081009;28;9856;-84
2023/09/02 04:19:02;;;;;;;;;6.67;4.00;;;;;-146.67;100.00;57155.34;5082348;28;8804;-84
2023/09/02 04:21:29;;;;;;;;;7.50;3.50;;;;;-146.67;100.00;57155.34;5080365;28;9492;-83
2023/09/02 04:23:54;;;;;;;;;5.25;5.25;;;;;-146.67;100.00;57155.34;5082560;28;10214;-84
2023/09/02 04:26:21;;;;;;;;;5.25;4.00;;;;;-146.67;100.00;57155.34;5078253;28;9894;-83
2023/09/02 04:28:46;;;;;;;;;5.00;4.25;;;;;-146.67;100.00;57155.34;5077554;28;8743;-84
2023/09/02 04:31:11;;;;;;;;;4.00;4.00;;;;;-146.67;100.00;57155.34;5078070;28;9949;-84
2023/09/02 04:33:37;;;;;;;;;5.00;5.00;;;;;-146.67;100.00;57155.34;5062060;28;8852;-84
2023/09/02 04:36:03;;;;;;;;;4.00;3.00;;;;;-146.67;100.00;57155.34;5077527;28;8818;-84
2023/09/02 04:38:28;;;;;;;;;3.50;3.50;;;;;-146.67;100.00;57155.34;5060682;28;8803;-84
2023/09/02 04:40:53;;;;;;;;;4.00;4.00;;;;;-146.67;100.00;57155.34;5064113;28;8897;-83
2023/09/02 04:43:19;;;;;;;;;5.25;4.00;;;;;-146.67;100.00;57155.34;5064357;28;9927;-84
2023/09/02 04:45:44;;;;;;;;;5.00;4.25;;;;;-146.67;100.00;57155.34;5082388;28;8849;-84
2023/09/02 04:48:10;;;;;;;;;4.50;4.50;;;;;-146.67;100.00;57155.34;5064422;28;8916;-84
2023/09/02 04:50:37;;;;;;;;;4.00;4.00;;;;;-146.67;100.00;57155.34;5081559;28;8774;-84
2023/09/02 04:53:03;;;;;;;;;4.75;4.00;;;;;-146.67;100.00;57155.34;5064028;28;10155;-84
2023/09/02 04:55:29;;;;;;;;;6.25;4.75;;;;;-146.67;100.00;57155.34;5063806;28;9730;-84
2023/09/02 04:57:56;;;;;;;;;5.00;3.00;;;;;-146.67;100.00;57155.34;5082304;28;9591;-83
2023/09/02 05:00:26;;;;;;;;;4.25;4.00;;;;;-146.67;100.00;57155.34;5063966;28;8801;-84
2023/09/02 05:02:52;;;;;;;;;2.00;2.00;;;;;-146.67;100.00;57155.34;5063439;28;10064;-84
2023/09/02 05:05:20;;;;;;;;;5.75;4.00;;;;;-146.67;100.00;57155.34;5081807;28;9711;-84
2023/09/02 05:07:45;;;;;;;;;3.75;3.75;;;;;-146.67;100.00;57155.34;5070147;28;9779;-84
2023/09/02 05:10:12;;;;;;;;;6.75;4.50;;;;;-146.67;100.00;57155.34;5062557;28;9925;-84
2023/09/02 05:12:38;;;;;;;;;3.50;3.25;;;;;-146.67;100.00;57155.34;5079173;28;10018;-84
2023/09/02 05:15:04;;;;;;;;;4.00;3.25;;;;;-146.67;100.00;57155.34;5081620;28;9777;-83
2023/09/02 05:17:31;;;;;;;;;2.00;2.00;;;;;-146.67;100.00;57155.34;5063529;28;8768;-84
2023/09/02 05:19:57;;;;;;;;;5.00;4.00;;;;;-146.67;100.00;57155.34;5080919;28;9665;-84
2023/09/02 05:22:22;;;;;;;;;3.00;2.00;;;;;-146.67;100.00;57155.34;5063736;28;10145;-84
2023/09/02 05:24:48;;;;;;;;;4.50;3.00;;;;;-146.67;100.00;57155.34;5081947;28;8861;-84
2023/09/02 05:27:13;;;;;;;;;4.25;4.25;;;;;-146.67;100.00;57155.34;5063409;28;8916;-83
2023/09/02 05:29:39;;;;;;;;;4.25;2.75;;;;;-146.67;100.00;57155.34;5081800;28;8793;-84
2023/09/02 05:32:04;;;;;;;;;2.25;2.25;;;;;-146.67;100.00;57155.34;5063040;28;9993;-83
2023/09/02 05:34:30;;;;;;;;;2.50;2.50;;;;;-146.67;100.00;57155.34;5063263;28;8924;-84
2023/09/02 05:36:55;;;;;;;;;2.50;2.50;;;;;-146.67;100.00;57155.34;5096110;28;8861;-84
2023/09/02 05:39:20;;;;;;;;;4.25;3.00;;;;;-146.67;100.00;57155.34;5101983;28;8795;-84
2023/09/02 05:41:46;;;;;;;;;4.25;3.00;;;;;-146.67;100.00;57155.34;5070645;28;9986;-84
2023/09/02 05:44:12;;;;;;;;;5.00;3.00;;;;;-146.67;100.00;57155.34;5082926;28;8805;-84
2023/09/02 05:46:38;;;;;;;;;2.25;2.00;;;;;-146.67;100.00;57155.34;5085206;28;8738;-83
2023/09/02 05:49:03;;;;;;;;;5.50;2.75;;;;;-146.67;100.00;57155.34;5065910;28;9888;-84
2023/09/02 05:51:29;;;;;;;;;0.00;0.00;;;;;-146.67;100.00;57155.34;5084735;28;8773;-84
2023/09/02 05:53:55;;;;;;;;;5.00;3.00;;;;;-146.67;100.00;57155.34;5084619;28;8813;-84
2023/09/02 05:56:20;;;;;;;;;3.00;2.00;;;;;-146.67;100.00;57155.34;5066637;28;8809;-83
2023/09/02 05:58:46;;;;;;;;;2.25;2.25;;;;;-146.67;100.00;57155.34;5084928;28;8797;-84
2023/09/02 06:01:11;;;;;;;;;2.00;2.00;;;;;-146.67;100.00;57155.34;5066446;28;10111;-83
2023/09/02 06:03:37;;;;;;;;;4.00;2.00;;;;;-146.67;100.00;57155.34;5065978;28;8808;-84
2023/09/02 06:06:09;;;;;;;;;4.00;3.00;;;;;-146.67;100.00;57155.34;5083793;28;8773;-84
2023/09/02 06:08:34;;;;;;;;;3.25;2.00;;;;;-146.67;100.00;57155.34;5066560;28;8797;-84
2023/09/02 06:11:00;;;;;;;;;4.00;2.67;;;;;-146.67;100.00;57155.34;5066290;28;9902;-84
2023/09/02 06:13:26;;;;;;;;;2.00;2.00;;;;;-146.67;100.00;57155.34;5066604;28;8781;-84
2023/09/02 06:15:56;;;;;;;;;3.00;3.00;;;;;-146.67;100.00;57155.34;5084749;28;8820;-84
2023/09/02 06:18:21;;;;;;;;;2.50;2.00;;;;;-146.67;100.00;57155.34;5083448;28;8773;-84
2023/09/02 06:20:46;;;;;;;;;4.00;4.00;;;;;-146.67;100.00;57155.34;5084119;28;9943;-84
2023/09/02 06:23:12;;;;;;;;;3.75;3.75;;;;;-146.67;100.00;57155.34;5082865;28;8829;-84
2023/09/02 06:25:37;;;;;;;;;3.00;3.00;;;;;-146.67;100.00;57155.34;5066329;28;8809;-83
2023/09/02 06:28:03;;;;;;;;;3.25;3.25;;;;;-146.67;100.00;57155.34;5084144;28;8764;-83
2023/09/02 06:30:28;;;;;;;;;3.00;3.00;;;;;-146.67;100.00;57155.34;5084458;28;8801;-84
2023/09/02 06:32:53;;;;;;;;;4.75;3.75;;;;;-146.67;100.00;57155.34;5065404;28;8801;-84
2023/09/02 06:35:19;;;;;;;;;7.50;3.75;;;;;-146.67;100.00;57155.34;5084147;28;8793;-84
2023/09/02 06:37:44;;;;;;;;;5.25;4.00;;;;;-146.67;100.00;57155.34;5084156;28;8757;-84
2023/09/02 06:40:10;;;;;;;;;2.25;2.25;;;;;-146.67;100.00;57155.34;5065725;28;9899;-84
2023/09/02 06:42:35;;;;;;;;;3.75;3.75;;;;;-146.67;100.00;57155.34;5083810;28;9549;-83
2023/09/02 06:45:01;;;;;;;;;2.75;2.75;;;;;-146.67;100.00;57155.34;5083878;28;8883;-83
2023/09/02 06:47:26;;;;;;;;;3.25;3.25;;;;;-146.67;100.00;57155.34;5081600;28;8817;-83
2023/09/02 06:49:52;;;;;;;;;3.00;3.00;;;;;-146.67;100.00;57155.34;5082169;28;10921;-83
2023/09/02 06:52:17;;;;;;;;;3.00;3.00;;;;;-146.67;100.00;57155.34;5065621;28;8815;-84
2023/09/02 06:54:43;;;;;;;;;4.75;4.00;;;;;-146.67;100.00;57155.34;5065843;28;8801;-85
2023/09/02 06:57:08;;;;;;;;;2.00;2.00;;;;;-146.67;100.00;57155.34;5079243;28;8854;-85
2023/09/02 06:59:34;;;;;;;;;3.67;3.67;;;;;-146.67;100.00;57155.34;5046292;28;10107;-86
2023/09/02 07:01:59;;;;;;;;;5.00;4.00;;;;;-146.67;100.00;57155.34;5046121;28;8802;-85
2023/09/02 07:04:25;;;;;;;;;3.67;2.67;;;;;-146.67;100.00;57155.34;5053303;28;8883;-85
2023/09/02 07:06:50;;;;;;;;;3.00;3.00;;;;;-146.67;100.00;57155.34;5049997;28;8808;-85
2023/09/02 07:09:16;;;;;;;;;3.67;3.67;;;;;-146.67;100.00;57155.34;5051447;28;10154;-85
2023/09/02 07:11:41;;;;;;;;;3.00;3.00;;;;;-146.67;100.00;57155.34;5054807;28;8917;-85
2023/09/02 07:14:06;;;;;;;;;2.33;2.33;;;;;-146.67;100.00;57155.34;5055798;28;9567;-85
2023/09/02 07:16:32;;;;;;;;;5.33;4.00;;;;;-146.67;100.00;57155.34;5053059;28;8834;-86
2023/09/02 07:18:58;;;;;;;;;3.00;3.00;;;;;-146.67;100.00;57155.34;5052651;28;11134;-84
2023/09/02 07:21:25;;;;;;;;;5.00;5.00;;;;;-146.67;100.00;57155.34;5065042;28;8778;-85
2023/09/02 07:23:51;;;;;;;;;3.33;3.00;;;;;-146.67;100.00;57155.34;5051261;28;9577;-85
2023/09/02 07:26:16;;;;;;;;;4.33;4.00;;;;;-146.67;100.00;57155.34;5072528;28;9401;-86
2023/09/02 07:28:42;;;;;;;;;3.67;3.67;;;;;-146.67;100.00;57155.34;5053922;28;10237;-85
2023/09/02 07:31:09;;;;;;;;;1.33;1.33;;;;;-146.67;100.00;57155.34;5072619;28;8825;-83
2023/09/02 07:33:34;;;;;;;;;2.67;2.67;;;;;-146.67;100.00;57155.34;5069056;28;8798;-80
2023/09/02 07:36:13;;;;;;;;;3.67;2.67;;;;;-146.67;100.00;57155.34;5063124;28;9392;-81
2023/09/02 07:38:40;;;;;;;;;8.67;4.67;;;;;-146.67;100.00;57155.34;5069383;28;8760;-81
2023/09/02 07:41:05;;;;;;;;;9.33;5.00;;;;;-146.67;100.00;57155.34;5047772;28;9409;-85
2023/09/02 07:43:31;;;;;;;;;4.00;3.00;;;;;-146.67;100.00;57155.34;5071090;28;9490;-84
2023/09/02 07:45:56;;;;;;;;;7.00;4.00;;;;;-146.67;100.00;57155.34;5047814;28;8795;-84
2023/09/02 07:48:22;;;;;;;;;8.00;6.33;;;;;-146.67;100.00;57155.34;5051036;28;10244;-84
2023/09/02 07:50:47;;;;;;;;;6.25;5.00;;;;;-146.67;100.00;57155.34;5064924;28;8850;-84
2023/09/02 07:53:13;;;;;;;;;6.00;6.00;;;;;-146.67;100.00;57155.34;5065144;28;9133;-85
2023/09/02 07:55:39;;;;;;;;;6.00;6.00;;;;;-146.67;100.00;57155.34;5090411;28;9691;-84
2023/09/02 07:58:04;;;;;;;;;6.00;6.00;;;;;-146.67;100.00;57155.34;5084599;28;9920;-84
2023/09/02 08:00:30;;;;;;;;;6.00;6.00;;;;;-146.67;100.00;57155.34;5080383;28;8822;-84
2023/09/02 08:02:57;;;;;;;;;8.25;8.25;;;;;-146.67;100.00;57155.34;5064042;28;8787;-85
2023/09/02 08:05:23;;;;;;;;;6.00;6.00;;;;;-146.67;100.00;57155.34;5083309;28;9741;-85
2023/09/02 08:07:48;;;;;;;;;9.33;6.33;;;;;-146.67;100.00;57155.34;5082363;28;9786;-85
2023/09/02 08:10:13;;;;;;;;;6.25;4.75;;;;;-146.67;100.00;57155.34;5083179;28;8795;-85
2023/09/02 08:12:39;;;;;;;;;7.67;7.67;;;;;-146.67;100.00;57155.34;5064479;28;9103;-86
2023/09/02 08:15:05;;;;;;;;;6.00;5.00;;;;;-146.67;100.00;57155.34;5064616;28;8763;-85
2023/09/02 08:17:35;;;;;;;;;5.00;4.00;;;;;-146.67;100.00;57155.34;5082676;28;8795;-85
2023/09/02 08:20:01;;;;;;;;;11.33;5.67;;;;;-146.67;100.00;57155.34;5064139;28;8731;-85
2023/09/02 08:22:26;;;;;;;;;4.00;4.00;;;;;-146.67;100.00;57155.34;5064747;28;9261;-85
2023/09/02 08:24:51;;;;;;;;;5.00;5.00;;;;;-146.67;100.00;57155.34;5082417;28;10844;-85
2023/09/02 08:27:17;;;;;;;;;6.33;6.33;;;;;-146.67;100.00;57155.34;5080752;28;9921;-88
2023/09/02 08:29:42;;;;;;;;;6.00;6.00;;;;;-146.67;100.00;57155.34;5086972;28;9658;-90
2023/09/02 08:32:08;;;;;;;;;7.50;6.25;;;;;-146.67;100.00;57155.34;5082512;28;8899;-83
2023/09/02 08:34:33;;;;;;;;;6.50;5.00;;;;;-146.67;100.00;57155.34;5082894;28;8775;-83
2023/09/02 08:36:58;;;;;;;;;6.25;6.25;;;;;-146.67;100.00;57155.34;5098415;28;8807;-84
2023/09/02 08:39:24;;;;;;;;;5.00;4.00;;;;;-146.67;100.00;57155.34;5094292;28;8796;-85
2023/09/02 08:41:50;;;;;;;;;7.00;5.00;;;;;-146.67;100.00;57155.34;5089928;28;8804;-86
2023/09/02 08:44:17;;;;;;;;;2.67;2.67;;;;;-146.67;100.00;57155.34;5073996;28;8799;-86
2023/09/02 08:46:45;;;;;;;;;4.00;3.67;;;;;-146.67;100.00;57155.34;5072589;28;10041;-84
2023/09/02 08:49:14;;;;;;;;;5.00;5.00;;;;;-146.67;100.00;57155.34;5090319;28;9368;-84
2023/09/02 08:51:40;;;;;;;;;4.33;4.00;;;;;-146.67;100.00;57155.34;5087211;28;9554;-80
2023/09/02 08:54:07;;;;;;;;;5.00;5.00;;;;;-146.67;100.00;57155.34;5089635;28;9627;-80
2023/09/02 08:56:33;;;;;;;;;6.00;4.00;;;;;-146.67;100.00;57155.34;5084202;28;10037;-83
2023/09/02 08:58:59;;;;;;;;;9.33;4.00;;;;;-146.67;100.00;57155.34;5080472;28;9676;-81
2023/09/02 09:01:24;;;;;;;;;5.00;4.67;;;;;-146.67;100.00;57155.34;5080203;28;9412;-81
2023/09/02 09:03:55;;;;;;;;;4.00;4.00;;;;;-146.67;100.00;57155.34;5066470;28;8806;-81
2023/09/02 09:06:24;;;;;;;;;5.00;4.00;;;;;-146.67;100.00;57155.34;5065491;28;10255;-80
2023/09/02 09:08:54;;;;;;;;;4.67;4.00;;;;;-146.67;100.00;57155.34;5082168;28;9427;-81
2023/09/02 09:11:22;;;;;;;;;6.00;4.00;;;;;-146.67;100.00;57155.34;5088370;28;9195;-84
2023/09/02 09:13:49;;;;;;;;;5.67;5.67;;;;;-146.67;100.00;57155.34;5089024;28;9295;-85
2023/09/02 09:16:36;;;;;;;;;4.67;4.00;;;;;-146.67;100.00;57155.34;5084486;28;9558;-86
2023/09/02 09:19:03;;;;;;;;;3.00;2.67;;;;;-146.67;100.00;57155.34;5066544;28;9125;-86
2023/09/02 09:21:28;;;;;;;;;6.67;5.00;;;;;-146.67;100.00;57155.34;5090730;28;9241;-87
2023/09/02 09:23:53;;;;;;;;;3.00;2.00;;;;;-146.67;100.00;57155.34;5095466;28;9533;-86
2023/09/02 09:26:21;;;;;;;;;2.67;2.67;;;;;-146.67;100.00;57155.34;5076060;28;10196;-85
2023/09/02 09:28:56;;;;;;;;;2.33;2.00;;;;;-146.67;100.00;57155.34;5071862;28;8837;-84
2023/09/02 09:31:23;;;;;;;;;3.67;3.00;;;;;-146.67;100.00;57155.34;5092710;28;9141;-84
2023/09/02 09:33:51;;;;;;;;;5.67;3.00;;;;;-146.67;100.00;57155.34;5099145;28;9180;-84
2023/09/02 09:36:20;;;;;;;;;3.00;2.00;;;;;-146.67;100.00;57155.34;5082124;28;10029;-83
2023/09/02 09:38:46;;;;;;;;;4.67;3.67;;;;;-146.67;100.00;57155.34;5096429;28;9181;-83
2023/09/02 09:41:11;;;;;;;;;3.33;3.33;;;;;-146.67;100.00;57155.34;5083540;28;9278;-80
2023/09/02 09:43:37;;;;;;;;;5.00;2.00;;;;;-146.67;100.00;57155.34;5082041;28;8841;-80
2023/09/02 09:46:03;;;;;;;;;1.67;1.67;;;;;-146.67;100.00;57155.34;5077085;28;9841;-80
2023/09/02 09:48:30;;;;;;;;;3.00;2.67;;;;;-146.67;100.00;57155.34;5086092;28;8727;-80
2023/09/02 09:50:55;;;;;;;;;3.00;3.00;;;;;-146.67;100.00;57155.34;5088899;28;9216;-82
2023/09/02 09:53:20;;;;;;;;;4.00;3.00;;;;;-146.67;100.00;57155.34;5078389;28;9155;-83
2023/09/02 09:55:46;;;;;;;;;3.00;2.67;;;;;-146.67;100.00;57155.34;5066567;28;10109;-84
2023/09/02 09:58:12;;;;;;;;;3.00;3.00;;;;;-146.67;100.00;57155.34;5083619;28;8873;-82
2023/09/02 10:00:37;;;;;;;;;3.00;3.00;;;;;-146.67;100.00;57155.34;5082867;28;8782;-83
2023/09/02 10:03:03;;;;;;;;;3.00;3.00;;;;;-146.67;100.00;57155.34;5089855;28;8819;-78
2023/09/02 10:05:31;;;;;;;;;3.00;3.00;;;;;-146.67;100.00;57155.34;5088936;28;8839;-79
2023/09/02 10:08:06;;;;;;;;;2.67;2.67;;;;;-146.67;100.00;57155.34;5090265;28;10983;-77
2023/09/02 10:10:36;;;;;;;;;2.00;2.00;;;;;-146.67;100.00;57155.34;5072468;28;9192;-80
2023/09/02 10:13:03;;;;;;;;;3.00;3.00;;;;;-146.67;100.00;57155.34;5086623;28;9060;-78
2023/09/02 10:15:30;;;;;;;;;4.00;3.00;;;;;-146.67;100.00;57155.34;5098137;28;9249;-78
2023/09/02 10:17:59;;;;;;;;;2.00;2.00;;;;;-146.67;100.00;57155.34;5082679;28;8950;-80
2023/09/02 10:20:30;;;;;;;;;2.33;2.33;;;;;-146.67;100.00;57155.34;5086378;28;8901;-78
2023/09/02 10:23:07;;;;;;;;;4.00;2.00;;;;;-146.67;100.00;57155.34;5085753;28;8820;-81
2023/09/02 10:25:56;;;;;;;;;2.33;1.67;;;;;-146.67;100.00;57155.34;5075398;28;10048;-79
2023/09/02 10:28:30;;;;;;;;;2.50;2.50;;;;;-146.67;100.00;57155.34;5056116;28;8857;-82
2023/09/02 10:30:59;;;;;;;;;1.50;1.50;;;;;-146.67;100.00;57155.34;5087664;28;8785;-82
2023/09/02 10:33:33;;;;;;;;;3.00;1.67;;;;;-146.67;100.00;57155.34;5066368;28;8735;-81
2023/09/02 10:36:03;;;;;;;;;2.00;2.00;;;;;-146.67;100.00;57155.34;5065456;28;10025;-80
2023/09/02 10:38:32;;;;;;;;;2.33;1.33;;;;;-146.67;100.00;57155.34;5072375;28;8737;-78
2023/09/02 10:41:18;;;;;;;;;1.00;1.00;;;;;-146.67;100.00;57155.34;5097706;28;8883;-83
2023/09/02 10:43:45;;;;;;;;;1.00;1.00;;;;;-146.67;100.00;57155.34;5067562;28;8742;-79
2023/09/02 10:46:11;;;;;;;;;1.67;1.67;;;;;-146.67;100.00;57155.34;5091237;28;8856;-81
2023/09/02 10:48:40;;;;;;;;;1.00;1.00;;;;;-146.67;100.00;57155.34;5087860;28;8900;-80
2023/09/02 10:51:07;;;;;;;;;1.50;1.50;;;;;-146.67;100.00;57155.34;5086944;28;8771;-81
2023/09/02 10:54:01;;;;;;;;;0.67;0.67;;;;;-146.67;100.00;57155.34;5068776;28;8737;-81
2023/09/02 10:56:30;;;;;;;;;0.75;0.75;;;;;-146.67;100.00;57155.34;5065058;28;10148;-80
2023/09/02 10:58:58;;;;;;;;;1.25;1.25;;;;;-146.67;100.00;57155.34;5081473;28;8794;-79
2023/09/02 11:01:41;;;;;;;;;1.25;0.75;;;;;-146.67;100.00;57155.34;5083433;28;8742;-84
2023/09/02 11:04:07;;;;;;;;;3.25;1.00;;;;;-146.67;100.00;57155.34;5082930;28;8830;-81
2023/09/02 11:06:33;;;;;;;;;2.33;1.33;;;;;-146.67;100.00;57155.34;5090393;28;10233;-87
2023/09/02 11:08:59;;;;;;;;;2.00;2.00;;;;;-146.67;100.00;57155.34;5074808;28;10518;-81
2023/09/02 11:12:03;;;;;;;;;1.75;1.75;;;;;-146.67;100.00;57155.34;5094865;28;8837;-77
2023/09/02 11:14:28;;;;;;;;;3.75;0.75;;;;;-146.67;100.00;57155.34;5090545;28;8719;-82